Time,TemperatureF,DewpointF,PressureIn,WindDirection,WindDirectionDegrees,WindSpeedMPH,WindSpeedGustMPH,Humidity,HourlyPrecipIn,Conditions,Clouds,dailyrainin,SoftwareType,DateUTC
2013-05-01 00:03:00,57.0,50.0,30.23,SE,137,0.0,4.0,77,0.00,,,0.01,,2013-05-01 04:03:00,
2013-05-01 00:12:00,57.0,50.0,30.23,SE,137,0.0,4.0,77,0.00,,,0.01,,2013-05-01 04:12:00,
2013-05-01 00:22:00,57.0,50.0,30.23,East,87,1.0,3.0,77,0.00,,,0.01,,2013-05-01 04:22:00,
2013-05-01 00:32:00,57.0,50.0,30.23,East,87,1.0,2.0,77,0.00,,,0.01,,2013-05-01 04:32:00,
2013-05-01 00:43:00,57.0,50.0,30.23,East,87,1.0,2.0,77,0.00,,,0.01,,2013-05-01 04:43:00,
2013-05-01 00:52:00,57.0,50.0,30.23,East,81,1.0,4.0,78,0.00,,,0.01,,2013-05-01 04:52:00,
2013-05-01 01:02:00,57.0,50.0,30.23,SE,125,0.0,3.0,78,0.00,,,0.01,,2013-05-01 05:02:00,
2013-05-01 01:11:00,57.0,50.0,30.23,SE,125,0.0,3.0,78,0.00,,,0.01,,2013-05-01 05:11:00,
2013-05-01 01:21:00,56.0,49.0,30.23,East,98,0.0,1.0,78,0.00,,,0.01,,2013-05-01 05:21:00,
2013-05-01 01:32:00,56.0,50.0,30.23,East,98,0.0,1.0,80,0.00,,,0.01,,2013-05-01 05:32:00,
2013-05-01 01:42:00,55.0,49.0,30.23,East,98,0.0,1.0,81,0.00,,,0.01,,2013-05-01 05:42:00,
2013-05-01 01:52:00,55.0,49.0,30.23,East,98,0.0,1.0,81,0.00,,,0.01,,2013-05-01 05:52:00,
2013-05-01 02:02:00,55.0,49.0,30.23,ESE,103,0.0,1.0,80,0.00,,,0.01,,2013-05-01 06:02:00,
2013-05-01 02:12:00,55.0,49.0,30.23,ESE,103,0.0,1.0,80,0.00,,,0.01,,2013-05-01 06:12:00,
2013-05-01 02:22:00,55.0,49.0,30.23,ESE,103,0.0,1.0,81,0.00,,,0.00,,2013-05-01 06:22:00,
2013-05-01 02:32:00,55.0,50.0,30.23,ESE,103,0.0,0.0,82,0.00,,,0.00,,2013-05-01 06:32:00,
2013-05-01 02:42:00,55.0,50.0,30.23,ESE,103,0.0,0.0,82,0.00,,,0.00,,2013-05-01 06:42:00,
2013-05-01 02:52:00,54.0,49.0,30.23,ESE,103,0.0,1.0,83,0.00,,,0.00,,2013-05-01 06:52:00,
2013-05-01 03:01:00,54.0,49.0,30.23,ESE,103,0.0,0.0,83,0.00,,,0.00,,2013-05-01 07:01:00,
2013-05-01 03:11:00,54.0,49.0,30.23,ESE,103,0.0,0.0,83,0.00,,,0.00,,2013-05-01 07:11:00,
2013-05-01 03:21:00,54.0,49.0,30.23,ESE,103,0.0,0.0,83,0.00,,,0.00,,2013-05-01 07:21:00,
2013-05-01 03:32:00,54.0,49.0,30.23,ESE,103,0.0,0.0,84,0.00,,,0.00,,2013-05-01 07:32:00,
2013-05-01 03:42:00,54.0,49.0,30.23,ESE,103,0.0,0.0,84,0.00,,,0.00,,2013-05-01 07:42:00,
2013-05-01 03:52:00,54.0,49.0,30.23,ESE,103,0.0,0.0,84,0.00,,,0.00,,2013-05-01 07:52:00,
2013-05-01 04:02:00,54.0,49.0,30.24,ESE,103,0.0,0.0,84,0.00,,,0.00,,2013-05-01 08:02:00,
2013-05-01 04:12:00,54.0,49.0,30.24,ESE,103,0.0,0.0,84,0.00,,,0.00,,2013-05-01 08:12:00,
2013-05-01 04:22:00,54.0,49.0,30.24,ESE,103,0.0,1.0,83,0.00,,,0.00,,2013-05-01 08:22:00,
2013-05-01 04:32:00,54.0,49.0,30.24,ESE,103,0.0,1.0,83,0.00,,,0.00,,2013-05-01 08:32:00,
2013-05-01 04:42:00,54.0,49.0,30.24,ESE,103,0.0,1.0,83,0.00,,,0.00,,2013-05-01 08:42:00,
2013-05-01 04:53:00,54.0,49.0,30.24,SE,135,0.0,2.0,83,0.00,,,0.00,,2013-05-01 08:53:00,
2013-05-01 05:01:00,54.0,49.0,30.24,SSW,213,0.0,1.0,83,0.00,,,0.00,,2013-05-01 09:01:00,
2013-05-01 05:12:00,54.0,49.0,30.24,SSW,213,0.0,1.0,83,0.00,,,0.00,,2013-05-01 09:12:00,
2013-05-01 05:21:00,54.0,49.0,30.24,ENE,70,0.0,1.0,83,0.00,,,0.00,,2013-05-01 09:21:00,
2013-05-01 05:33:00,53.0,48.0,30.25,ENE,70,0.0,1.0,84,0.00,,,0.00,,2013-05-01 09:33:00,
2013-05-01 05:42:00,53.0,48.0,30.25,ENE,70,0.0,1.0,84,0.00,,,0.00,,2013-05-01 09:42:00,
2013-05-01 05:53:00,53.0,48.0,30.25,ENE,70,0.0,1.0,84,0.00,,,0.00,,2013-05-01 09:53:00,
2013-05-01 06:03:00,54.0,49.0,30.26,ENE,67,1.0,3.0,83,0.00,,,0.00,,2013-05-01 10:03:00,
2013-05-01 06:12:00,54.0,49.0,30.26,ENE,67,1.0,3.0,83,0.00,,,0.00,,2013-05-01 10:12:00,
2013-05-01 06:22:00,53.0,48.0,30.27,ENE,67,0.0,0.0,84,0.00,,,0.00,,2013-05-01 10:22:00,
2013-05-01 06:33:00,53.0,48.0,30.28,ENE,57,0.0,1.0,84,0.00,,,0.00,,2013-05-01 10:33:00,
2013-05-01 06:42:00,53.0,48.0,30.28,ENE,57,0.0,1.0,84,0.00,,,0.00,,2013-05-01 10:42:00,
2013-05-01 06:53:00,53.0,48.0,30.29,ENE,57,0.0,0.0,84,0.00,,,0.00,,2013-05-01 10:53:00,
2013-05-01 07:02:00,54.0,49.0,30.29,ENE,57,0.0,0.0,83,0.00,,,0.00,,2013-05-01 11:02:00,
2013-05-01 07:11:00,54.0,49.0,30.29,ENE,57,0.0,0.0,83,0.00,,,0.00,,2013-05-01 11:11:00,
2013-05-01 07:22:00,54.0,49.0,30.30,ENE,57,0.0,0.0,82,0.00,,,0.00,,2013-05-01 11:22:00,
2013-05-01 07:32:00,54.0,49.0,30.31,ENE,57,0.0,0.0,83,0.00,,,0.00,,2013-05-01 11:32:00,
2013-05-01 07:42:00,54.0,49.0,30.31,ENE,57,0.0,0.0,83,0.00,,,0.00,,2013-05-01 11:42:00,
2013-05-01 07:52:00,55.0,49.0,30.32,ENE,57,0.0,2.0,81,0.00,,,0.00,,2013-05-01 11:52:00,
2013-05-01 08:01:00,56.0,50.0,30.32,East,94,1.0,3.0,79,0.00,,,0.00,,2013-05-01 12:01:00,
2013-05-01 08:11:00,57.0,50.0,30.32,ENE,71,2.0,4.0,77,0.00,,,0.00,,2013-05-01 12:11:00,
2013-05-01 08:21:00,57.0,50.0,30.32,ENE,71,2.0,4.0,77,0.00,,,0.00,,2013-05-01 12:21:00,
2013-05-01 08:32:00,58.0,50.0,30.33,SSE,161,1.0,5.0,76,0.00,,,0.00,,2013-05-01 12:32:00,
2013-05-01 08:41:00,58.0,50.0,30.33,SSE,161,1.0,5.0,76,0.00,,,0.00,,2013-05-01 12:41:00,
2013-05-01 08:52:00,58.0,50.0,30.33,SE,126,1.0,4.0,75,0.00,,,0.00,,2013-05-01 12:52:00,
2013-05-01 09:01:00,59.0,51.0,30.33,SSE,149,0.0,6.0,74,0.00,,,0.00,,2013-05-01 13:01:00,
2013-05-01 09:11:00,59.0,51.0,30.33,SSE,149,0.0,6.0,74,0.00,,,0.00,,2013-05-01 13:11:00,
2013-05-01 09:22:00,60.0,51.0,30.33,East,80,1.0,7.0,71,0.00,,,0.00,,2013-05-01 13:22:00,
2013-05-01 09:32:00,61.0,52.0,30.34,SE,133,2.0,4.0,71,0.00,,,0.00,,2013-05-01 13:32:00,
2013-05-01 09:42:00,61.0,52.0,30.34,SE,133,2.0,4.0,71,0.00,,,0.00,,2013-05-01 13:42:00,
2013-05-01 09:52:00,62.0,53.0,30.33,ENE,71,1.0,3.0,72,0.00,,,0.00,,2013-05-01 13:52:00,
2013-05-01 10:02:00,62.0,51.0,30.34,ESE,104,2.0,6.0,66,0.00,,,0.00,,2013-05-01 14:02:00,
2013-05-01 10:11:00,62.0,51.0,30.34,ESE,104,2.0,6.0,66,0.00,,,0.00,,2013-05-01 14:11:00,
2013-05-01 10:22:00,63.0,52.0,30.34,ENE,76,2.0,7.0,67,0.00,,,0.00,,2013-05-01 14:22:00,
2013-05-01 10:32:00,64.0,52.0,30.34,East,98,2.0,4.0,64,0.00,,,0.00,,2013-05-01 14:32:00,
2013-05-01 10:42:00,64.0,52.0,30.34,East,98,2.0,4.0,64,0.00,,,0.00,,2013-05-01 14:42:00,
2013-05-01 10:52:00,64.0,52.0,30.35,SSE,150,2.0,6.0,66,0.00,,,0.00,,2013-05-01 14:52:00,
2013-05-01 11:01:00,65.0,51.0,30.35,NNE,14,2.0,5.0,61,0.00,,,0.00,,2013-05-01 15:01:00,
2013-05-01 11:11:00,65.0,51.0,30.35,NNE,14,2.0,5.0,61,0.00,,,0.00,,2013-05-01 15:11:00,
2013-05-01 11:21:00,66.0,52.0,30.35,ESE,123,2.0,5.0,60,0.00,,,0.00,,2013-05-01 15:21:00,
2013-05-01 11:33:00,67.0,52.0,30.35,ENE,74,2.0,6.0,59,0.00,,,0.00,,2013-05-01 15:33:00,
2013-05-01 11:43:00,67.0,52.0,30.35,ENE,74,2.0,6.0,59,0.00,,,0.00,,2013-05-01 15:43:00,
2013-05-01 11:53:00,67.0,54.0,30.34,ENE,71,1.0,6.0,62,0.00,,,0.00,,2013-05-01 15:53:00,
2013-05-01 12:03:00,69.0,51.0,30.34,ESE,109,2.0,7.0,53,0.00,,,0.00,,2013-05-01 16:03:00,
2013-05-01 12:12:00,69.0,51.0,30.34,ESE,109,2.0,7.0,53,0.00,,,0.00,,2013-05-01 16:12:00,
2013-05-01 12:22:00,68.0,52.0,30.34,ESE,118,1.0,6.0,57,0.00,,,0.00,,2013-05-01 16:22:00,
2013-05-01 12:32:00,69.0,52.0,30.34,ENE,63,2.0,8.0,55,0.00,,,0.00,,2013-05-01 16:32:00,
2013-05-01 12:42:00,69.0,52.0,30.34,ENE,63,2.0,8.0,55,0.00,,,0.00,,2013-05-01 16:42:00,
2013-05-01 12:53:00,69.0,50.0,30.33,SE,126,2.0,10.0,51,0.00,,,0.00,,2013-05-01 16:53:00,
2013-05-01 13:02:00,69.0,52.0,30.33,ESE,108,2.0,7.0,55,0.00,,,0.00,,2013-05-01 17:02:00,
2013-05-01 13:12:00,69.0,52.0,30.33,ESE,108,2.0,7.0,55,0.00,,,0.00,,2013-05-01 17:12:00,
2013-05-01 13:22:00,70.0,52.0,30.32,East,101,1.0,7.0,52,0.00,,,0.00,,2013-05-01 17:22:00,
2013-05-01 13:32:00,71.0,54.0,30.32,SE,134,1.0,5.0,56,0.00,,,0.00,,2013-05-01 17:32:00,
2013-05-01 13:42:00,73.0,54.0,30.32,ENE,69,3.0,7.0,51,0.00,,,0.00,,2013-05-01 17:42:00,
2013-05-01 13:52:00,73.0,54.0,30.32,ENE,69,3.0,7.0,51,0.00,,,0.00,,2013-05-01 17:52:00,
2013-05-01 14:01:00,72.0,53.0,30.31,SE,136,3.0,8.0,51,0.00,,,0.00,,2013-05-01 18:01:00,
2013-05-01 14:11:00,72.0,53.0,30.31,SE,136,3.0,8.0,51,0.00,,,0.00,,2013-05-01 18:11:00,
2013-05-01 14:22:00,73.0,54.0,30.31,SE,136,2.0,7.0,52,0.00,,,0.00,,2013-05-01 18:22:00,
2013-05-01 14:32:00,73.0,52.0,30.31,South,189,3.0,7.0,47,0.00,,,0.00,,2013-05-01 18:32:00,
2013-05-01 14:42:00,73.0,52.0,30.31,South,189,3.0,7.0,47,0.00,,,0.00,,2013-05-01 18:42:00,
2013-05-01 14:52:00,73.0,56.0,30.31,SE,126,2.0,7.0,55,0.00,,,0.00,,2013-05-01 18:52:00,
2013-05-01 15:02:00,74.0,55.0,30.31,SE,139,2.0,6.0,51,0.00,,,0.00,,2013-05-01 19:02:00,
2013-05-01 15:11:00,74.0,55.0,30.31,SE,139,2.0,6.0,51,0.00,,,0.00,,2013-05-01 19:11:00,
2013-05-01 15:22:00,75.0,52.0,30.30,ENE,77,3.0,7.0,44,0.00,,,0.00,,2013-05-01 19:22:00,
2013-05-01 15:32:00,75.0,52.0,30.30,SE,126,2.0,7.0,44,0.00,,,0.00,,2013-05-01 19:32:00,
2013-05-01 15:43:00,75.0,52.0,30.30,SE,126,2.0,7.0,44,0.00,,,0.00,,2013-05-01 19:43:00,
2013-05-01 15:52:00,75.0,52.0,30.29,ESE,113,1.0,4.0,45,0.00,,,0.00,,2013-05-01 19:52:00,
2013-05-01 16:02:00,76.0,51.0,30.29,ESE,121,3.0,7.0,42,0.00,,,0.00,,2013-05-01 20:02:00,
2013-05-01 16:11:00,76.0,51.0,30.29,ESE,121,3.0,7.0,42,0.00,,,0.00,,2013-05-01 20:11:00,
2013-05-01 16:21:00,75.0,52.0,30.29,SSW,197,2.0,8.0,45,0.00,,,0.00,,2013-05-01 20:21:00,
2013-05-01 16:32:00,75.0,53.0,30.29,SE,127,2.0,8.0,46,0.00,,,0.00,,2013-05-01 20:32:00,
2013-05-01 16:42:00,75.0,53.0,30.29,SE,127,2.0,8.0,46,0.00,,,0.00,,2013-05-01 20:42:00,
2013-05-01 16:52:00,75.0,49.0,30.29,SSW,202,2.0,4.0,40,0.00,,,0.00,,2013-05-01 20:52:00,
2013-05-01 17:01:00,75.0,49.0,30.29,East,96,2.0,4.0,40,0.00,,,0.00,,2013-05-01 21:01:00,
2013-05-01 17:11:00,75.0,49.0,30.29,East,96,2.0,4.0,40,0.00,,,0.00,,2013-05-01 21:11:00,
2013-05-01 17:22:00,75.0,49.0,30.29,ENE,63,2.0,4.0,40,0.00,,,0.00,,2013-05-01 21:22:00,
2013-05-01 17:32:00,75.0,45.0,30.29,ESE,116,3.0,7.0,35,0.00,,,0.00,,2013-05-01 21:32:00,
2013-05-01 17:43:00,75.0,45.0,30.29,ESE,117,1.0,4.0,34,0.00,,,0.00,,2013-05-01 21:43:00,
2013-05-01 17:53:00,75.0,45.0,30.29,ESE,117,1.0,4.0,34,0.00,,,0.00,,2013-05-01 21:53:00,
2013-05-01 18:03:00,75.0,45.0,30.29,ENE,68,2.0,5.0,34,0.00,,,0.00,,2013-05-01 22:03:00,
2013-05-01 18:12:00,75.0,45.0,30.29,ENE,68,2.0,5.0,34,0.00,,,0.00,,2013-05-01 22:12:00,
2013-05-01 18:23:00,74.0,44.0,30.29,SSE,163,1.0,7.0,34,0.00,,,0.00,,2013-05-01 22:23:00,
2013-05-01 18:33:00,74.0,43.0,30.29,ESE,120,1.0,3.0,33,0.00,,,0.00,,2013-05-01 22:33:00,
2013-05-01 18:42:00,74.0,43.0,30.29,ESE,120,1.0,3.0,33,0.00,,,0.00,,2013-05-01 22:42:00,
2013-05-01 18:53:00,74.0,41.0,30.29,SE,131,2.0,5.0,31,0.00,,,0.00,,2013-05-01 22:53:00,
2013-05-01 19:02:00,73.0,40.0,30.29,SE,130,2.0,5.0,30,0.00,,,0.00,,2013-05-01 23:02:00,
2013-05-01 19:12:00,73.0,40.0,30.29,SE,130,2.0,5.0,30,0.00,,,0.00,,2013-05-01 23:12:00,
2013-05-01 19:21:00,72.0,41.0,30.29,ESE,121,0.0,5.0,33,0.00,,,0.00,,2013-05-01 23:21:00,
2013-05-01 19:32:00,71.0,42.0,30.30,East,87,0.0,2.0,35,0.00,,,0.00,,2013-05-01 23:32:00,
2013-05-01 19:42:00,71.0,42.0,30.30,East,87,0.0,2.0,35,0.00,,,0.00,,2013-05-01 23:42:00,
2013-05-01 19:52:00,71.0,41.0,30.30,ENE,57,1.0,3.0,34,0.00,,,0.00,,2013-05-01 23:52:00,
2013-05-01 20:01:00,70.0,39.0,30.30,ENE,76,1.0,3.0,32,0.00,,,0.00,,2013-05-02 00:01:00,
2013-05-01 20:11:00,70.0,39.0,30.30,ENE,76,1.0,3.0,32,0.00,,,0.00,,2013-05-02 00:11:00,
2013-05-01 20:21:00,69.0,38.0,30.30,ENE,65,1.0,4.0,32,0.00,,,0.00,,2013-05-02 00:21:00,
2013-05-01 20:32:00,68.0,37.0,30.31,East,91,0.0,2.0,32,0.00,,,0.00,,2013-05-02 00:32:00,
2013-05-01 20:42:00,68.0,37.0,30.31,East,91,0.0,2.0,32,0.00,,,0.00,,2013-05-02 00:42:00,
2013-05-01 20:52:00,67.0,38.0,30.31,ENE,61,0.0,3.0,34,0.00,,,0.00,,2013-05-02 00:52:00,
2013-05-01 21:01:00,66.0,35.0,30.32,ENE,65,1.0,4.0,32,0.00,,,0.00,,2013-05-02 01:01:00,
2013-05-01 21:11:00,66.0,35.0,30.32,ENE,65,1.0,4.0,32,0.00,,,0.00,,2013-05-02 01:11:00,
2013-05-01 21:22:00,65.0,35.0,30.32,ENE,68,1.0,2.0,33,0.00,,,0.00,,2013-05-02 01:22:00,
2013-05-01 21:32:00,65.0,35.0,30.32,ENE,57,1.0,3.0,33,0.00,,,0.00,,2013-05-02 01:32:00,
2013-05-01 21:42:00,65.0,35.0,30.32,ENE,57,1.0,3.0,33,0.00,,,0.00,,2013-05-02 01:42:00,
2013-05-01 21:52:00,64.0,34.0,30.33,NE,55,0.0,3.0,33,0.00,,,0.00,,2013-05-02 01:52:00,
2013-05-01 22:02:00,64.0,35.0,30.33,ENE,57,1.0,3.0,34,0.00,,,0.00,,2013-05-02 02:02:00,
2013-05-01 22:12:00,64.0,35.0,30.33,ENE,57,1.0,3.0,34,0.00,,,0.00,,2013-05-02 02:12:00,
2013-05-01 22:21:00,63.0,35.0,30.33,ENE,57,0.0,2.0,35,0.00,,,0.00,,2013-05-02 02:21:00,
2013-05-01 22:32:00,62.0,35.0,30.34,ENE,57,0.0,1.0,36,0.00,,,0.00,,2013-05-02 02:32:00,
2013-05-01 22:42:00,62.0,35.0,30.34,ENE,57,0.0,1.0,36,0.00,,,0.00,,2013-05-02 02:42:00,
2013-05-01 22:51:00,62.0,35.0,30.34,ENE,57,0.0,1.0,36,0.00,,,0.00,,2013-05-02 02:51:00,
2013-05-01 23:01:00,58.0,38.0,30.35,ENE,57,0.0,1.0,47,0.00,,,0.00,,2013-05-02 03:01:00,
2013-05-01 23:11:00,58.0,38.0,30.35,ENE,57,0.0,1.0,47,0.00,,,0.00,,2013-05-02 03:11:00,
2013-05-01 23:22:00,57.0,38.0,30.35,ENE,58,0.0,1.0,48,0.00,,,0.00,,2013-05-02 03:22:00,
2013-05-01 23:33:00,58.0,36.0,30.35,ENE,58,0.0,1.0,43,0.00,,,0.00,,2013-05-02 03:33:00,
2013-05-01 23:43:00,58.0,36.0,30.35,ENE,58,0.0,1.0,43,0.00,,,0.00,,2013-05-02 03:43:00,
2013-05-01 23:53:00,59.0,37.0,30.35,ENE,58,0.0,0.0,43,0.00,,,0.00,,2013-05-02 03:53:00,